Time;durP1;ratioP1;P1;durP2;ratioP2;P2;SDS_P1;SDS_P2;PMS_P1;PMS_P2;Temp;Humidity;BMP_temperature;BMP_pressure;BME280_temperature;BME280_humidity;BME280_pressure;Samples;Min_cycle;Max_cycle;Signal;HPM_P1;HPM_P2
2024/03/31 00:00:44;;;;;;;13.53;5.13;;;12.50;99.90;;;;;;5116150;28;20236;-75
2024/03/31 00:03:09;;;;;;;13.93;6.40;;;12.60;99.90;;;;;;5116150;28;20224;-74
2024/03/31 00:05:35;;;;;;;14.13;6.53;;;12.60;99.90;;;;;;5116215;28;20278;-75
2024/03/31 00:08:01;;;;;;;21.10;8.23;;;12.60;99.90;;;;;;5115867;28;20178;-75
2024/03/31 00:10:26;;;;;;;11.97;6.37;;;12.60;99.90;;;;;;5116046;28;20504;-74
2024/03/31 00:12:52;;;;;;;17.00;7.10;;;12.70;99.90;;;;;;5116009;27;20177;-74
2024/03/31 00:15:17;;;;;;;16.47;6.57;;;12.70;99.90;;;;;;5115908;28;20230;-74
2024/03/31 00:17:43;;;;;;;15.50;6.50;;;12.80;99.90;;;;;;5115887;28;20311;-75
2024/03/31 00:20:09;;;;;;;16.37;5.90;;;12.80;99.90;;;;;;5115815;27;20184;-74
2024/03/31 00:22:34;;;;;;;16.97;5.70;;;12.80;99.90;;;;;;5115763;28;20186;-74
2024/03/31 00:25:00;;;;;;;13.87;4.70;;;12.80;99.90;;;;;;5115796;28;20247;-74
2024/03/31 00:27:26;;;;;;;19.43;6.70;;;12.80;99.90;;;;;;5115740;28;20214;-74
2024/03/31 00:29:51;;;;;;;13.40;5.70;;;12.90;99.90;;;;;;5114327;28;20204;-74
2024/03/31 00:32:17;;;;;;;14.57;5.73;;;12.90;99.90;;;;;;5115654;28;20172;-74
2024/03/31 00:34:42;;;;;;;20.60;5.37;;;12.90;99.90;;;;;;5114193;28;20553;-73
2024/03/31 00:37:08;;;;;;;12.07;5.20;;;12.90;99.90;;;;;;5115740;28;20326;-75
2024/03/31 00:39:33;;;;;;;11.40;5.67;;;12.60;99.90;;;;;;5115469;28;20203;-75
2024/03/31 00:42:00;;;;;;;13.70;5.00;;;12.70;99.90;;;;;;5115586;28;20541;-74
2024/03/31 00:44:25;;;;;;;10.93;4.27;;;12.80;99.90;;;;;;5115712;28;20223;-74
2024/03/31 00:46:51;;;;;;;11.73;4.87;;;12.80;99.90;;;;;;5114168;28;20898;-74
2024/03/31 00:49:16;;;;;;;20.43;4.63;;;12.90;99.90;;;;;;5114582;28;20185;-74
2024/03/31 00:51:42;;;;;;;13.13;5.07;;;13.10;99.90;;;;;;5115607;28;20203;-74
2024/03/31 00:54:08;;;;;;;21.20;5.37;;;13.10;99.90;;;;;;5115074;28;20176;-75
2024/03/31 00:56:33;;;;;;;15.33;4.20;;;13.20;99.90;;;;;;5115464;28;20168;-74
2024/03/31 00:58:59;;;;;;;19.53;3.90;;;13.30;99.90;;;;;;5115013;28;20870;-75
2024/03/31 01:01:24;;;;;;;12.20;3.40;;;13.30;99.90;;;;;;5115001;28;20170;-74
2024/03/31 01:03:50;;;;;;;15.33;4.50;;;13.40;99.90;;;;;;5115055;28;20172;-74
2024/03/31 01:06:19;;;;;;;15.70;4.77;;;13.30;99.90;;;;;;5114994;28;20164;-74
2024/03/31 01:08:46;;;;;;;14.83;4.23;;;13.10;99.90;;;;;;5114742;28;20212;-74
2024/03/31 01:11:12;;;;;;;11.30;4.57;;;13.20;99.90;;;;;;5113630;28;20408;-74
2024/03/31 01:13:38;;;;;;;11.57;4.50;;;13.30;99.90;;;;;;5114939;28;20857;-75
2024/03/31 01:16:04;;;;;;;11.50;4.10;;;13.40;99.90;;;;;;5113648;28;21003;-76
2024/03/31 01:18:31;;;;;;;18.30;4.83;;;13.40;99.90;;;;;;5114754;28;20460;-75
2024/03/31 01:20:56;;;;;;;12.50;4.43;;;13.40;99.90;;;;;;5113434;28;20189;-76
2024/03/31 01:23:27;;;;;;;16.27;4.60;;;13.40;99.90;;;;;;5114771;28;20928;-76
2024/03/31 01:25:58;;;;;;;10.37;4.00;;;13.30;99.90;;;;;;5114784;28;20188;-75
2024/03/31 01:28:23;;;;;;;12.83;3.83;;;13.30;99.90;;;;;;5113300;28;20462;-76
2024/03/31 01:30:49;;;;;;;14.70;4.33;;;13.20;99.90;;;;;;5114612;28;20494;-75
2024/03/31 01:33:15;;;;;;;15.03;4.37;;;13.20;99.90;;;;;;5114617;28;20642;-76
2024/03/31 01:35:40;;;;;;;9.50;3.53;;;13.30;99.90;;;;;;5114341;28;20198;-76
2024/03/31 01:38:06;;;;;;;17.80;4.83;;;13.20;99.90;;;;;;5114280;28;20402;-75
2024/03/31 01:40:32;;;;;;;17.30;4.57;;;13.20;99.90;;;;;;5114242;28;20241;-74
2024/03/31 01:42:57;;;;;;;18.03;4.87;;;13.10;99.90;;;;;;5114670;28;20250;-74
2024/03/31 01:45:23;;;;;;;16.90;5.10;;;13.10;99.90;;;;;;5113082;28;20544;-74
2024/03/31 01:47:48;;;;;;;14.03;4.00;;;13.20;99.90;;;;;;5114123;28;20204;-74
2024/03/31 01:50:14;;;;;;;14.77;4.67;;;13.10;99.90;;;;;;5114300;28;20196;-74
2024/03/31 01:52:39;;;;;;;12.97;4.60;;;13.20;99.90;;;;;;5114320;28;20638;-75
2024/03/31 01:55:05;;;;;;;14.30;4.47;;;13.20;99.90;;;;;;5114397;28;20195;-74
2024/03/31 01:57:31;;;;;;;12.83;3.90;;;13.30;99.90;;;;;;5114889;28;20168;-75
2024/03/31 01:59:56;;;;;;;16.43;4.97;;;13.30;99.90;;;;;;5114056;28;20190;-75
2024/03/31 02:02:22;;;;;;;15.30;4.87;;;13.40;99.90;;;;;;5113895;28;20189;-75
2024/03/31 02:04:47;;;;;;;16.87;5.00;;;13.30;99.90;;;;;;5113083;28;20230;-75
2024/03/31 02:07:13;;;;;;;15.23;5.60;;;13.00;99.90;;;;;;5114780;28;20689;-75
2024/03/31 02:09:38;;;;;;;14.13;4.90;;;13.10;99.90;;;;;;5116184;28;20240;-75
2024/03/31 02:12:04;;;;;;;11.67;4.80;;;13.10;99.90;;;;;;5119853;28;20179;-75
2024/03/31 02:14:30;;;;;;;13.33;4.63;;;13.10;99.90;;;;;;5122365;28;20193;-74
2024/03/31 02:16:55;;;;;;;22.07;5.57;;;13.10;99.90;;;;;;5118778;28;20636;-75
2024/03/31 02:19:23;;;;;;;17.77;5.00;;;13.10;99.90;;;;;;5115142;28;20543;-74
2024/03/31 02:21:48;;;;;;;23.93;6.20;;;13.20;99.90;;;;;;5115955;28;20189;-75
2024/03/31 02:24:14;;;;;;;16.77;6.10;;;12.60;99.90;;;;;;5114378;28;20398;-75
2024/03/31 02:26:40;;;;;;;17.43;5.93;;;12.40;99.90;;;;;;5113455;28;20167;-74
2024/03/31 02:29:05;;;;;;;21.73;6.70;;;12.30;99.90;;;;;;5113485;28;20183;-74
2024/03/31 02:31:31;;;;;;;20.10;6.30;;;12.30;99.90;;;;;;5113375;28;20696;-74
2024/03/31 02:33:56;;;;;;;17.40;6.50;;;12.30;99.90;;;;;;5113198;28;20240;-74
2024/03/31 02:36:22;;;;;;;15.20;4.87;;;12.30;99.90;;;;;;5113382;28;20225;-74
2024/03/31 02:38:47;;;;;;;20.00;5.97;;;12.40;99.90;;;;;;5113176;28;20192;-74
2024/03/31 02:41:13;;;;;;;13.17;5.20;;;12.30;99.90;;;;;;5113481;28;20224;-74
2024/03/31 02:43:39;;;;;;;15.80;5.67;;;12.40;99.90;;;;;;5113116;28;20177;-74
2024/03/31 02:46:04;;;;;;;16.87;5.07;;;12.50;99.90;;;;;;5113098;28;20218;-74
2024/03/31 02:48:30;;;;;;;23.73;5.57;;;12.40;99.90;;;;;;5113056;28;20201;-74
2024/03/31 02:50:55;;;;;;;16.50;5.13;;;11.90;99.90;;;;;;5113142;28;20179;-74
2024/03/31 02:53:21;;;;;;;17.30;5.73;;;11.70;99.90;;;;;;5113135;28;20180;-74
2024/03/31 02:55:46;;;;;;;20.27;6.33;;;11.50;99.90;;;;;;5112885;28;20225;-74
2024/03/31 02:58:12;;;;;;;17.40;4.50;;;11.60;99.90;;;;;;5112895;28;20181;-75
2024/03/31 03:00:38;;;;;;;21.73;5.00;;;11.60;99.90;;;;;;5112860;28;20185;-75
2024/03/31 03:03:03;;;;;;;12.20;4.00;;;11.80;99.90;;;;;;5113063;28;20245;-74
2024/03/31 03:05:29;;;;;;;15.03;4.63;;;12.00;99.90;;;;;;5113174;28;20251;-75
2024/03/31 03:07:54;;;;;;;19.43;5.20;;;12.10;99.90;;;;;;5112777;28;20265;-75
2024/03/31 03:10:20;;;;;;;15.60;4.67;;;12.20;99.90;;;;;;5112805;28;20215;-76
2024/03/31 03:12:48;;;;;;;15.97;4.40;;;12.30;99.90;;;;;;5112459;28;20174;-75
2024/03/31 03:15:14;;;;;;;10.10;4.27;;;12.30;99.90;;;;;;5112652;28;20286;-75
2024/03/31 03:17:39;;;;;;;11.03;4.50;;;12.30;99.90;;;;;;5112790;28;20440;-75
2024/03/31 03:20:06;;;;;;;11.70;4.60;;;12.20;99.90;;;;;;5112584;28;20184;-75
2024/03/31 03:22:34;;;;;;;11.33;3.87;;;12.20;99.90;;;;;;5112831;28;20169;-74
2024/03/31 03:25:00;;;;;;;18.73;5.17;;;12.10;99.90;;;;;;5112615;28;20475;-75
2024/03/31 03:27:25;;;;;;;15.10;4.30;;;12.00;99.90;;;;;;5112700;28;20406;-75
2024/03/31 03:29:54;;;;;;;18.47;4.90;;;12.00;99.90;;;;;;5112607;28;20568;-74
2024/03/31 03:32:20;;;;;;;18.97;5.53;;;11.80;99.90;;;;;;5112608;28;20300;-76
2024/03/31 03:34:45;;;;;;;11.07;4.30;;;11.60;99.90;;;;;;5112528;28;20900;-76
2024/03/31 03:37:11;;;;;;;15.87;4.50;;;11.60;99.90;;;;;;5112515;28;20493;-76
2024/03/31 03:39:37;;;;;;;12.83;4.73;;;11.60;99.90;;;;;;5112727;28;20200;-75
2024/03/31 03:42:03;;;;;;;22.03;5.77;;;11.60;99.90;;;;;;5111313;28;20170;-75
2024/03/31 03:44:28;;;;;;;16.10;4.47;;;11.60;99.90;;;;;;5112609;28;20176;-75
2024/03/31 03:46:54;;;;;;;24.23;5.60;;;11.60;99.90;;;;;;5111129;28;20411;-75
2024/03/31 03:49:20;;;;;;;11.90;4.33;;;11.50;99.90;;;;;;5112393;28;20181;-75
2024/03/31 03:51:45;;;;;;;23.87;5.40;;;11.50;99.90;;;;;;5112368;28;20170;-75
2024/03/31 03:54:11;;;;;;;11.73;4.40;;;11.60;99.90;;;;;;5111227;28;20271;-75
2024/03/31 03:56:38;;;;;;;13.53;4.77;;;11.40;99.90;;;;;;5112330;28;20164;-75
2024/03/31 03:59:04;;;;;;;16.40;4.87;;;11.40;99.90;;;;;;5112320;28;20186;-75
2024/03/31 04:01:30;;;;;;;15.07;5.30;;;11.30;99.90;;;;;;5112567;28;20405;-75
2024/03/31 04:03:55;;;;;;;13.17;4.93;;;11.30;99.90;;;;;;5112306;28;20406;-75
2024/03/31 04:06:21;;;;;;;22.60;5.00;;;11.20;99.90;;;;;;5112650;28;20287;-75
2024/03/31 04:08:47;;;;;;;13.80;4.77;;;11.30;99.90;;;;;;5112135;28;20685;-75
2024/03/31 04:11:19;;;;;;;17.03;4.80;;;11.20;99.90;;;;;;5112208;28;20168;-75
2024/03/31 04:13:44;;;;;;;17.07;5.60;;;11.10;99.90;;;;;;5112613;28;20171;-75
2024/03/31 04:16:10;;;;;;;16.00;5.20;;;11.20;99.90;;;;;;5112105;28;20454;-75
2024/03/31 04:18:35;;;;;;;10.37;4.00;;;11.10;99.90;;;;;;5112138;28;20184;-75
2024/03/31 04:21:01;;;;;;;13.33;4.83;;;11.10;99.90;;;;;;5112092;28;20165;-75
2024/03/31 04:23:26;;;;;;;21.00;5.67;;;11.20;99.90;;;;;;5112360;28;20171;-76
2024/03/31 04:25:52;;;;;;;9.90;4.80;;;11.30;99.90;;;;;;5115837;28;20574;-75
2024/03/31 04:28:17;;;;;;;18.23;4.47;;;11.20;99.90;;;;;;5115939;28;20608;-75
2024/03/31 04:30:43;;;;;;;12.83;4.63;;;11.30;99.90;;;;;;5115674;28;20529;-75
2024/03/31 04:33:09;;;;;;;13.80;4.40;;;11.40;99.90;;;;;;5115746;28;20170;-75
2024/03/31 04:35:39;;;;;;;16.30;4.70;;;11.30;99.90;;;;;;5116079;28;20221;-75
2024/03/31 04:38:05;;;;;;;11.77;4.73;;;11.50;99.90;;;;;;5116203;28;20426;-75
2024/03/31 04:40:31;;;;;;;19.60;5.40;;;11.60;99.90;;;;;;5115368;28;20403;-74
2024/03/31 04:42:57;;;;;;;18.13;5.40;;;11.60;99.90;;;;;;5115584;28;20363;-74
2024/03/31 04:45:23;;;;;;;19.43;5.10;;;11.80;99.90;;;;;;5115707;28;20421;-74
2024/03/31 04:47:49;;;;;;;13.47;5.50;;;11.90;99.90;;;;;;5115385;28;20175;-73
2024/03/31 04:50:15;;;;;;;13.70;5.30;;;11.90;99.90;;;;;;5115306;28;20472;-74
2024/03/31 04:52:41;;;;;;;16.77;4.90;;;11.80;99.90;;;;;;5115257;27;20543;-74
2024/03/31 04:55:07;;;;;;;19.30;6.07;;;11.80;99.90;;;;;;5115220;28;20454;-75
2024/03/31 04:57:32;;;;;;;9.13;4.07;;;11.90;99.90;;;;;;5115120;28;20406;-74
2024/03/31 04:59:58;;;;;;;16.47;5.20;;;12.00;99.90;;;;;;5115064;28;20189;-74
2024/03/31 05:02:23;;;;;;;14.30;4.83;;;12.00;99.90;;;;;;5115157;28;20178;-74
2024/03/31 05:04:49;;;;;;;13.00;5.20;;;12.00;99.90;;;;;;5115006;28;20606;-74
2024/03/31 05:07:14;;;;;;;13.13;4.90;;;12.10;99.90;;;;;;5115088;28;20605;-73
2024/03/31 05:09:40;;;;;;;20.07;5.47;;;12.10;99.90;;;;;;5114816;28;20564;-74
2024/03/31 05:12:06;;;;;;;14.83;5.73;;;12.20;99.90;;;;;;5115051;28;20168;-74
2024/03/31 05:14:31;;;;;;;15.00;4.77;;;12.20;99.90;;;;;;5114967;28;20221;-74
2024/03/31 05:16:57;;;;;;;13.60;5.40;;;12.20;99.90;;;;;;5114852;28;20245;-74
2024/03/31 05:19:23;;;;;;;14.20;5.23;;;12.30;99.90;;;;;;5114622;28;20195;-74
2024/03/31 05:21:49;;;;;;;11.80;5.00;;;12.30;99.90;;;;;;5114786;28;20407;-75
2024/03/31 05:24:15;;;;;;;12.10;5.47;;;12.30;99.90;;;;;;5114591;28;20198;-74
2024/03/31 05:26:41;;;;;;;15.60;5.97;;;12.30;99.90;;;;;;5113328;28;20237;-74
2024/03/31 05:29:06;;;;;;;15.00;6.67;;;12.40;99.90;;;;;;5114402;28;20252;-75
2024/03/31 05:31:32;;;;;;;16.10;8.23;;;12.30;99.90;;;;;;5114528;27;20438;-74
2024/03/31 05:33:59;;;;;;;16.57;8.80;;;12.10;99.90;;;;;;5114427;28;20169;-75
2024/03/31 05:36:25;;;;;;;21.30;8.50;;;12.00;99.90;;;;;;5114184;28;20211;-75
2024/03/31 05:38:50;;;;;;;14.10;7.90;;;12.00;99.90;;;;;;5114310;28;20420;-74
2024/03/31 05:41:16;;;;;;;14.63;7.20;;;12.10;99.90;;;;;;5113018;28;20168;-75
2024/03/31 05:43:41;;;;;;;19.10;8.60;;;12.10;99.90;;;;;;5114466;28;20179;-74
2024/03/31 05:46:07;;;;;;;20.63;9.60;;;12.00;99.90;;;;;;5114534;28;20177;-75
2024/03/31 05:48:33;;;;;;;21.33;9.63;;;11.90;99.90;;;;;;5114328;28;20204;-75
2024/03/31 05:50:58;;;;;;;15.90;10.57;;;11.80;99.90;;;;;;5114814;28;20893;-74
2024/03/31 05:53:24;;;;;;;21.27;8.30;;;11.90;99.90;;;;;;5115384;28;20519;-75
2024/03/31 05:55:50;;;;;;;17.87;8.93;;;12.00;99.90;;;;;;5114225;28;20672;-75
2024/03/31 05:58:15;;;;;;;22.60;9.77;;;12.00;99.90;;;;;;5114377;28;20161;-75
2024/03/31 06:00:41;;;;;;;23.47;8.13;;;12.00;99.90;;;;;;5114367;28;20194;-75
2024/03/31 06:03:06;;;;;;;27.40;10.37;;;12.10;99.90;;;;;;5114384;28;20157;-75
2024/03/31 06:05:32;;;;;;;14.83;7.03;;;12.20;99.90;;;;;;5113991;28;20206;-75
2024/03/31 06:07:58;;;;;;;15.57;7.33;;;12.30;99.90;;;;;;5114157;28;20661;-75
2024/03/31 06:10:23;;;;;;;13.47;7.20;;;12.40;99.90;;;;;;5113826;28;20461;-75
2024/03/31 06:12:49;;;;;;;17.53;7.60;;;12.30;99.90;;;;;;5113780;28;20177;-74
2024/03/31 06:15:15;;;;;;;18.53;6.97;;;12.20;99.90;;;;;;5112455;28;20693;-75
2024/03/31 06:17:40;;;;;;;15.57;6.30;;;12.20;99.90;;;;;;5113859;28;20210;-75
2024/03/31 06:20:08;;;;;;;16.93;5.83;;;12.20;99.90;;;;;;5113646;28;20199;-74
2024/03/31 06:22:38;;;;;;;17.93;6.90;;;12.40;99.90;;;;;;5113541;28;20254;-75
2024/03/31 06:25:04;;;;;;;20.73;6.40;;;12.20;99.90;;;;;;5113784;28;20383;-75
2024/03/31 06:27:29;;;;;;;17.70;5.90;;;12.10;99.90;;;;;;5113660;28;20410;-75
2024/03/31 06:29:55;;;;;;;15.67;6.70;;;12.20;99.90;;;;;;5113554;28;20433;-74
2024/03/31 06:32:20;;;;;;;15.00;6.17;;;12.30;99.90;;;;;;5113314;28;20160;-73
2024/03/31 06:34:50;;;;;;;14.27;6.03;;;12.50;99.90;;;;;;5112031;28;20190;-74
2024/03/31 06:37:17;;;;;;;13.17;5.80;;;12.20;99.90;;;;;;5113309;28;20196;-75
2024/03/31 06:39:42;;;;;;;19.10;6.60;;;11.90;99.90;;;;;;5113223;27;20425;-75
2024/03/31 06:42:08;;;;;;;14.87;6.20;;;12.10;99.90;;;;;;5113484;28;20396;-75
2024/03/31 06:44:34;;;;;;;13.50;6.77;;;12.40;99.90;;;;;;5113558;28;20252;-74
2024/03/31 06:46:59;;;;;;;15.03;6.30;;;12.60;99.90;;;;;;5112747;28;20165;-75
2024/03/31 06:49:25;;;;;;;15.63;5.90;;;12.70;99.90;;;;;;5113142;28;20202;-74
2024/03/31 06:51:50;;;;;;;11.13;5.40;;;12.80;99.90;;;;;;5113303;28;20199;-73
2024/03/31 06:54:16;;;;;;;12.40;5.40;;;12.60;99.90;;;;;;5113240;28;20550;-74
2024/03/31 06:56:41;;;;;;;14.30;5.63;;;12.60;99.90;;;;;;5112855;28;20176;-74
2024/03/31 06:59:07;;;;;;;17.43;5.80;;;12.70;99.90;;;;;;5112989;28;20662;-74
2024/03/31 07:01:33;;;;;;;12.50;5.50;;;12.60;99.90;;;;;;5112865;28;20515;-74
2024/03/31 07:03:58;;;;;;;13.73;5.40;;;12.40;99.90;;;;;;5112863;28;20697;-74
2024/03/31 07:06:24;;;;;;;14.70;6.90;;;12.40;99.90;;;;;;5112863;28;20187;-74
2024/03/31 07:08:49;;;;;;;15.00;5.80;;;12.30;99.90;;;;;;5112431;28;20218;-75
2024/03/31 07:11:15;;;;;;;15.30;5.70;;;12.20;99.90;;;;;;5112780;28;20204;-75
2024/03/31 07:13:41;;;;;;;20.97;6.47;;;11.90;99.90;;;;;;5112741;28;20171;-75
2024/03/31 07:16:07;;;;;;;14.63;5.93;;;11.70;99.90;;;;;;5112652;28;20180;-75
2024/03/31 07:18:32;;;;;;;17.00;5.63;;;11.50;99.90;;;;;;5112720;28;20428;-76
2024/03/31 07:20:58;;;;;;;12.43;5.30;;;11.50;99.90;;;;;;5112644;28;20165;-75
2024/03/31 07:23:23;;;;;;;11.90;6.03;;;11.80;99.90;;;;;;5112762;28;20166;-75
2024/03/31 07:25:49;;;;;;;22.43;6.50;;;11.90;99.90;;;;;;5112524;28;20581;-75
2024/03/31 07:28:14;;;;;;;11.80;5.20;;;12.10;99.90;;;;;;5112507;28;20161;-75
2024/03/31 07:30:40;;;;;;;13.27;5.23;;;12.30;99.90;;;;;;5112537;28;20649;-73
2024/03/31 07:33:06;;;;;;;14.13;6.60;;;12.30;99.90;;;;;;5112530;28;20682;-75
2024/03/31 07:35:31;;;;;;;24.93;6.87;;;12.20;99.90;;;;;;5112479;28;20189;-76
2024/03/31 07:37:57;;;;;;;14.47;5.37;;;12.60;99.90;;;;;;5111176;28;20206;-73
2024/03/31 07:40:22;;;;;;;16.23;4.70;;;12.70;99.90;;;;;;5112388;28;20176;-74
2024/03/31 07:42:48;;;;;;;17.27;5.17;;;12.80;99.90;;;;;;5112448;28;20171;-74
2024/03/31 07:45:13;;;;;;;18.63;5.37;;;12.80;99.90;;;;;;5112289;28;20200;-74
2024/03/31 07:47:39;;;;;;;12.23;4.20;;;12.90;99.90;;;;;;5112515;28;20171;-74
2024/03/31 07:50:05;;;;;;;11.13;4.03;;;12.90;99.90;;;;;;5112313;28;20188;-74
2024/03/31 07:52:30;;;;;;;14.03;3.90;;;13.20;99.90;;;;;;5112596;28;20175;-75
2024/03/31 07:54:56;;;;;;;10.77;4.20;;;13.40;99.90;;;;;;5112295;28;20183;-75
2024/03/31 07:57:21;;;;;;;11.20;4.10;;;13.30;99.90;;;;;;5112335;28;20184;-74
2024/03/31 07:59:47;;;;;;;15.93;5.37;;;13.40;99.90;;;;;;5114645;28;20262;-76
2024/03/31 08:02:13;;;;;;;13.67;5.03;;;13.40;99.90;;;;;;5116281;28;20164;-74
2024/03/31 08:04:40;;;;;;;14.20;4.70;;;13.40;99.90;;;;;;5115024;28;20253;-73
2024/03/31 08:07:06;;;;;;;15.30;4.40;;;13.40;99.90;;;;;;5116046;28;20770;-74
2024/03/31 08:09:31;;;;;;;17.80;5.57;;;13.60;99.90;;;;;;5115789;28;20525;-73
2024/03/31 08:11:57;;;;;;;15.83;4.60;;;13.90;99.90;;;;;;5114785;28;20722;-74
2024/03/31 08:14:22;;;;;;;20.17;5.00;;;14.20;99.90;;;;;;5115905;28;20592;-74
2024/03/31 08:16:48;;;;;;;15.07;4.20;;;14.20;99.90;;;;;;5115754;28;20600;-74
2024/03/31 08:19:13;;;;;;;13.87;4.73;;;14.00;99.90;;;;;;5115882;28;20202;-74
2024/03/31 08:21:39;;;;;;;12.60;3.43;;;14.00;99.90;;;;;;5114580;28;20654;-73
2024/03/31 08:24:05;;;;;;;12.70;4.53;;;14.10;99.90;;;;;;5114649;28;20174;-75
2024/03/31 08:26:31;;;;;;;10.23;3.77;;;14.10;99.90;;;;;;5116144;28;20595;-74
2024/03/31 08:28:57;;;;;;;11.53;3.90;;;14.00;99.90;;;;;;5115938;28;20433;-75
2024/03/31 08:31:22;;;;;;;14.90;4.60;;;14.00;99.90;;;;;;5116021;28;20166;-74
2024/03/31 08:33:48;;;;;;;15.73;5.00;;;14.00;99.90;;;;;;5116015;28;20217;-75
2024/03/31 08:36:13;;;;;;;10.17;4.17;;;14.20;99.90;;;;;;5115732;28;20191;-74
2024/03/31 08:38:39;;;;;;;15.37;4.03;;;14.40;99.90;;;;;;5115735;28;20184;-75
2024/03/31 08:41:09;;;;;;;11.73;3.27;;;14.60;99.90;;;;;;5115768;28;20169;-74
2024/03/31 08:43:39;;;;;;;15.20;4.10;;;14.80;99.90;;;;;;5115680;28;20162;-76
2024/03/31 08:46:09;;;;;;;13.43;4.57;;;14.80;99.90;;;;;;5114203;28;20412;-76
2024/03/31 08:48:38;;;;;;;13.57;3.80;;;14.60;99.90;;;;;;5114009;28;20451;-76
2024/03/31 08:51:05;;;;;;;15.97;3.77;;;14.50;99.90;;;;;;5115383;28;20507;-76
2024/03/31 08:53:32;;;;;;;12.90;4.27;;;14.60;99.90;;;;;;5115352;28;20410;-75
2024/03/31 08:55:57;;;;;;;9.53;2.90;;;14.60;99.90;;;;;;5115055;28;20440;-76
2024/03/31 08:58:23;;;;;;;13.00;3.93;;;14.90;99.90;;;;;;5115272;28;20473;-76
2024/03/31 09:00:51;;;;;;;16.63;4.17;;;14.80;99.90;;;;;;5115570;28;20165;-76
2024/03/31 09:03:17;;;;;;;9.90;3.13;;;14.90;99.90;;;;;;5115465;28;20164;-76
2024/03/31 09:05:43;;;;;;;14.53;3.40;;;14.90;99.90;;;;;;5115137;28;20930;-76
2024/03/31 09:08:09;;;;;;;20.00;4.30;;;15.10;99.90;;;;;;5114771;28;20424;-74
2024/03/31 09:10:35;;;;;;;15.57;4.20;;;15.40;99.90;;;;;;5114181;28;20179;-74
2024/03/31 09:13:08;;;;;;;15.47;4.27;;;14.80;99.90;;;;;;5114890;28;20440;-74
2024/03/31 09:15:35;;;;;;;10.43;4.00;;;14.80;99.90;;;;;;5114894;28;20473;-75
2024/03/31 09:18:01;;;;;;;15.90;4.30;;;15.00;99.90;;;;;;5114947;28;20477;-75
2024/03/31 09:20:26;;;;;;;12.13;3.83;;;15.10;99.90;;;;;;5114889;28;20464;-75
2024/03/31 09:22:52;;;;;;;15.13;4.20;;;15.20;99.90;;;;;;5114807;28;20185;-75
2024/03/31 09:25:18;;;;;;;17.50;4.00;;;15.40;99.90;;;;;;5114769;28;20172;-75
2024/03/31 09:27:43;;;;;;;21.10;4.00;;;15.60;99.90;;;;;;5116210;28;20666;-75
2024/03/31 09:30:09;;;;;;;14.03;3.70;;;15.50;99.90;;;;;;5114863;28;20824;-75
2024/03/31 09:32:37;;;;;;;14.60;4.53;;;15.40;99.90;;;;;;5114782;28;20250;-75
2024/03/31 09:35:04;;;;;;;9.93;4.00;;;15.50;99.90;;;;;;5114708;28;20521;-75
2024/03/31 09:37:30;;;;;;;13.90;4.53;;;15.80;99.90;;;;;;5114973;28;20390;-75
2024/03/31 09:39:55;;;;;;;14.90;3.87;;;15.80;99.90;;;;;;5113051;28;20459;-75
2024/03/31 09:42:21;;;;;;;13.20;3.30;;;15.70;99.90;;;;;;5114469;28;20611;-75
2024/03/31 09:44:47;;;;;;;13.20;3.43;;;15.80;99.90;;;;;;5114339;28;20709;-76
2024/03/31 09:47:36;;;;;;;12.67;4.13;;;15.90;99.90;;;;;;5114251;28;20218;-76
2024/03/31 09:50:13;;;;;;;13.67;3.33;;;16.10;99.90;;;;;;5112826;28;20441;-75
2024/03/31 09:52:42;;;;;;;14.93;4.00;;;16.50;99.90;;;;;;5114222;28;20433;-75
2024/03/31 09:55:11;;;;;;;13.83;3.60;;;16.50;99.90;;;;;;5114172;28;20438;-75
2024/03/31 09:57:42;;;;;;;13.00;4.00;;;16.70;99.90;;;;;;5114006;28;20399;-75
2024/03/31 10:00:12;;;;;;;20.83;4.07;;;16.70;99.90;;;;;;5113805;28;20422;-75
2024/03/31 10:02:39;;;;;;;15.07;3.57;;;16.70;99.90;;;;;;5112572;28;20407;-76
2024/03/31 10:05:10;;;;;;;14.67;4.07;;;16.70;99.90;;;;;;5113734;28;20974;-75
2024/03/31 10:07:38;;;;;;;16.13;3.80;;;16.50;99.90;;;;;;5113733;28;20439;-76
2024/03/31 10:10:04;;;;;;;15.00;3.93;;;16.80;99.90;;;;;;5113725;28;20438;-75
2024/03/31 10:12:33;;;;;;;15.23;4.20;;;17.00;99.90;;;;;;5113588;28;20448;-75
2024/03/31 10:15:01;;;;;;;12.93;4.47;;;17.40;99.90;;;;;;5113845;28;20940;-75
2024/03/31 10:17:29;;;;;;;14.60;4.33;;;17.50;99.90;;;;;;5113812;28;20422;-76
2024/03/31 10:19:57;;;;;;;13.53;3.90;;;17.80;99.90;;;;;;5113321;28;20446;-76
2024/03/31 10:22:24;;;;;;;13.10;3.67;;;17.70;99.90;;;;;;5112741;28;20403;-75
2024/03/31 10:24:51;;;;;;;13.70;3.80;;;18.00;99.90;;;;;;5113980;28;20438;-76
2024/03/31 10:27:18;;;;;;;15.60;3.80;;;18.00;99.90;;;;;;5112202;28;20422;-76
2024/03/31 10:29:44;;;;;;;16.57;3.63;;;17.90;99.90;;;;;;5113430;28;20476;-75
2024/03/31 10:32:11;;;;;;;15.80;3.80;;;17.80;99.90;;;;;;5113367;28;20437;-76
2024/03/31 10:34:39;;;;;;;12.47;3.60;;;17.80;99.90;;;;;;5113167;28;20446;-76
2024/03/31 10:37:08;;;;;;;14.70;4.40;;;18.10;99.90;;;;;;5113405;28;20897;-74
2024/03/31 10:39:35;;;;;;;11.83;3.90;;;18.40;99.90;;;;;;5113370;28;20454;-74
2024/03/31 10:42:01;;;;;;;20.80;4.30;;;18.50;99.90;;;;;;5113200;28;20399;-75
2024/03/31 10:44:27;;;;;;;12.03;3.10;;;18.80;99.90;;;;;;5112968;28;20442;-75
2024/03/31 10:46:53;;;;;;;26.27;4.27;;;19.00;99.90;;;;;;5113104;28;20428;-74
2024/03/31 10:49:19;;;;;;;14.03;3.60;;;18.90;99.60;;;;;;5112873;28;20422;-74
2024/03/31 10:51:44;;;;;;;11.30;3.63;;;19.20;98.70;;;;;;5113004;28;20402;-75
2024/03/31 10:54:33;;;;;;;14.60;4.30;;;19.50;98.20;;;;;;5113000;28;20165;-74
2024/03/31 10:57:01;;;;;;;11.83;3.63;;;19.90;96.80;;;;;;5113266;27;20176;-76
2024/03/31 10:59:28;;;;;;;18.13;4.50;;;20.00;96.50;;;;;;5112884;27;20632;-75
2024/03/31 11:02:09;;;;;;;15.67;4.50;;;19.70;95.70;;;;;;5113350;28;20394;-76
2024/03/31 11:04:34;;;;;;;12.53;3.17;;;19.60;96.70;;;;;;5113143;28;20451;-76
2024/03/31 11:07:04;;;;;;;13.80;3.67;;;19.40;96.10;;;;;;5112958;28;20481;-75
2024/03/31 11:09:30;;;;;;;14.70;3.23;;;19.30;96.10;;;;;;5112622;28;20615;-75
2024/03/31 11:11:57;;;;;;;13.90;4.03;;;19.30;97.20;;;;;;5112896;28;20434;-75
2024/03/31 11:14:26;;;;;;;16.57;3.70;;;18.80;96.50;;;;;;5112666;28;20171;-75
2024/03/31 11:16:52;;;;;;;15.40;3.20;;;18.70;98.00;;;;;;5112779;28;20399;-76
2024/03/31 11:19:21;;;;;;;12.27;3.30;;;18.70;97.60;;;;;;5112690;28;20458;-75
2024/03/31 11:21:47;;;;;;;11.43;4.03;;;18.60;97.50;;;;;;5112753;28;20405;-75
2024/03/31 11:24:13;;;;;;;22.57;3.50;;;18.60;97.20;;;;;;5112973;28;20437;-75
2024/03/31 11:26:40;;;;;;;14.33;3.43;;;18.60;97.10;;;;;;5112535;28;20433;-76
2024/03/31 11:29:08;;;;;;;13.10;2.90;;;18.60;97.60;;;;;;5112611;28;20426;-75
2024/03/31 11:31:36;;;;;;;18.40;3.87;;;18.30;97.30;;;;;;5111245;28;20403;-75
2024/03/31 11:34:03;;;;;;;11.27;2.70;;;18.60;97.20;;;;;;5115412;28;20405;-75
2024/03/31 11:36:28;;;;;;;18.13;4.60;;;18.60;98.10;;;;;;5116763;28;20856;-75
2024/03/31 11:38:54;;;;;;;17.13;3.80;;;19.00;98.30;;;;;;5116574;28;20426;-75
2024/03/31 11:41:21;;;;;;;12.73;2.70;;;18.80;96.90;;;;;;5116613;28;20649;-75
2024/03/31 11:43:47;;;;;;;18.57;3.47;;;19.00;97.10;;;;;;5116974;28;20205;-75
2024/03/31 11:46:16;;;;;;;14.23;3.97;;;18.90;97.50;;;;;;5116662;28;20413;-75
2024/03/31 11:48:41;;;;;;;10.83;3.00;;;19.50;96.60;;;;;;5116408;28;20426;-75
2024/03/31 11:51:07;;;;;;;9.10;3.10;;;20.70;95.40;;;;;;5116386;28;20398;-75
2024/03/31 11:53:32;;;;;;;18.47;3.70;;;22.20;93.40;;;;;;5116550;28;20541;-75
2024/03/31 11:55:58;;;;;;;9.97;3.50;;;23.40;91.50;;;;;;5116576;28;20188;-76
2024/03/31 11:58:24;;;;;;;16.13;3.70;;;24.40;90.70;;;;;;5116350;27;20180;-76
2024/03/31 12:00:52;;;;;;;10.60;3.20;;;24.60;85.60;;;;;;5116432;28;20660;-76
2024/03/31 12:03:18;;;;;;;15.03;4.00;;;24.20;85.70;;;;;;5116277;28;20210;-76
2024/03/31 12:05:51;;;;;;;13.83;3.80;;;24.70;85.30;;;;;;5114892;28;20913;-76
2024/03/31 12:08:18;;;;;;;17.60;3.60;;;24.90;84.50;;;;;;5116236;28;20189;-76
2024/03/31 12:10:47;;;;;;;11.90;3.90;;;24.10;83.50;;;;;;5116135;28;20414;-76
2024/03/31 12:13:14;;;;;;;18.50;4.10;;;23.00;84.40;;;;;;5116150;28;20780;-76
2024/03/31 12:15:40;;;;;;;21.13;4.70;;;22.30;87.20;;;;;;5115826;28;20437;-76
2024/03/31 12:18:07;;;;;;;11.40;3.87;;;22.30;88.20;;;;;;5115799;28;20474;-76
2024/03/31 12:20:34;;;;;;;13.60;4.20;;;22.50;88.30;;;;;;5115785;28;20398;-75
2024/03/31 12:22:59;;;;;;;14.00;3.40;;;21.70;88.80;;;;;;5115984;28;20425;-76
2024/03/31 12:25:26;;;;;;;14.57;3.27;;;21.90;89.60;;;;;;5115861;28;20403;-75
2024/03/31 12:27:52;;;;;;;9.30;3.00;;;21.50;88.40;;;;;;5115820;28;20165;-75
2024/03/31 12:30:18;;;;;;;19.87;3.80;;;21.60;89.00;;;;;;5115689;28;20434;-76
2024/03/31 12:32:44;;;;;;;14.93;3.97;;;21.40;90.20;;;;;;5115743;28;20172;-76